Rumpus Ridge, South Dakota
Current Conditions -  °F | °C
As of 7:56 AM on Saturday 25 Oct 2014 (Local Time) from KFSD Reporting Station
Few Clouds Few Clouds  
Wind Chill: 42°   Ceiling: Unl
Heat Index: 42°   Visibility: 10mi
Dew Point: 38°   Wind: 0mph
Humidity: 85%   Direction: NA
Pressure: 30.11"   Gusts: NA
Location:  43.5855°N, 97.3085°W
Report Text: KFSD 251256Z 00000KT 10SM FEW150 06/03 A3011 RMK AO2 SLP201 T00560033
Loading
Personal Weather Stations






























Interactive Weather Map New forecast layout! Learn more

10-Day Weather Forecast

Advertisements
Track Severe Weather on mobile